sensor_id;sensor_type;location;lat;lon;timestamp;P1;durP1;ratioP1;P2;durP2;ratioP2
21330;SDS011;10824;51.632;4.950;2024-03-08T00:01:25;18.42;;;8.00;;
21330;SDS011;10824;51.632;4.950;2024-03-08T00:03:57;17.90;;;9.77;;
21330;SDS011;10824;51.632;4.950;2024-03-08T00:06:25;17.02;;;8.93;;
21330;SDS011;10824;51.632;4.950;2024-03-08T00:08:53;22.45;;;9.05;;
21330;SDS011;10824;51.632;4.950;2024-03-08T00:11:20;20.77;;;9.02;;
21330;SDS011;10824;51.632;4.950;2024-03-08T00:13:48;12.25;;;7.85;;
21330;SDS011;10824;51.632;4.950;2024-03-08T00:16:15;18.35;;;8.35;;
21330;SDS011;10824;51.632;4.950;2024-03-08T00:18:46;16.05;;;8.15;;
21330;SDS011;10824;51.632;4.950;2024-03-08T00:21:14;22.92;;;8.82;;
21330;SDS011;10824;51.632;4.950;2024-03-08T00:23:42;14.27;;;6.68;;
21330;SDS011;10824;51.632;4.950;2024-03-08T00:26:10;14.30;;;6.78;;
21330;SDS011;10824;51.632;4.950;2024-03-08T00:28:38;16.25;;;6.97;;
21330;SDS011;10824;51.632;4.950;2024-03-08T00:31:05;13.23;;;6.95;;
21330;SDS011;10824;51.632;4.950;2024-03-08T00:33:34;14.57;;;8.10;;
21330;SDS011;10824;51.632;4.950;2024-03-08T00:36:02;16.00;;;8.32;;
21330;SDS011;10824;51.632;4.950;2024-03-08T00:38:30;21.70;;;8.65;;
21330;SDS011;10824;51.632;4.950;2024-03-08T00:40:58;18.63;;;7.80;;
21330;SDS011;10824;51.632;4.950;2024-03-08T00:43:26;17.02;;;8.07;;
21330;SDS011;10824;51.632;4.950;2024-03-08T00:45:53;18.83;;;7.60;;
21330;SDS011;10824;51.632;4.950;2024-03-08T00:48:21;17.23;;;9.40;;
21330;SDS011;10824;51.632;4.950;2024-03-08T00:50:49;18.83;;;7.95;;
21330;SDS011;10824;51.632;4.950;2024-03-08T00:53:16;32.80;;;8.90;;
21330;SDS011;10824;51.632;4.950;2024-03-08T00:55:47;16.33;;;7.45;;
21330;SDS011;10824;51.632;4.950;2024-03-08T00:58:15;22.67;;;8.02;;
21330;SDS011;10824;51.632;4.950;2024-03-08T01:00:44;19.65;;;9.75;;
21330;SDS011;10824;51.632;4.950;2024-03-08T01:03:11;17.45;;;8.55;;
21330;SDS011;10824;51.632;4.950;2024-03-08T01:05:39;17.45;;;8.85;;
21330;SDS011;10824;51.632;4.950;2024-03-08T01:08:07;19.98;;;7.53;;
21330;SDS011;10824;51.632;4.950;2024-03-08T01:10:35;16.50;;;9.27;;
21330;SDS011;10824;51.632;4.950;2024-03-08T01:13:03;17.95;;;8.18;;
21330;SDS011;10824;51.632;4.950;2024-03-08T01:15:31;14.60;;;6.88;;
21330;SDS011;10824;51.632;4.950;2024-03-08T01:17:59;18.77;;;8.23;;
21330;SDS011;10824;51.632;4.950;2024-03-08T01:20:27;12.13;;;6.57;;
21330;SDS011;10824;51.632;4.950;2024-03-08T01:22:55;17.98;;;7.38;;
21330;SDS011;10824;51.632;4.950;2024-03-08T01:25:22;22.63;;;8.15;;
21330;SDS011;10824;51.632;4.950;2024-03-08T01:27:52;19.70;;;7.65;;
21330;SDS011;10824;51.632;4.950;2024-03-08T01:30:20;19.98;;;7.78;;
21330;SDS011;10824;51.632;4.950;2024-03-08T01:32:48;15.75;;;7.45;;
21330;SDS011;10824;51.632;4.950;2024-03-08T01:35:16;18.85;;;7.13;;
21330;SDS011;10824;51.632;4.950;2024-03-08T01:37:45;14.25;;;8.50;;
21330;SDS011;10824;51.632;4.950;2024-03-08T01:40:12;12.25;;;6.95;;
21330;SDS011;10824;51.632;4.950;2024-03-08T01:42:40;21.88;;;9.13;;
21330;SDS011;10824;51.632;4.950;2024-03-08T01:45:08;12.05;;;5.55;;
21330;SDS011;10824;51.632;4.950;2024-03-08T01:47:35;21.85;;;8.23;;
21330;SDS011;10824;51.632;4.950;2024-03-08T01:50:04;13.77;;;7.38;;
21330;SDS011;10824;51.632;4.950;2024-03-08T01:52:34;14.75;;;6.63;;
21330;SDS011;10824;51.632;4.950;2024-03-08T01:55:03;18.70;;;6.47;;
21330;SDS011;10824;51.632;4.950;2024-03-08T01:57:34;14.10;;;7.55;;
21330;SDS011;10824;51.632;4.950;2024-03-08T02:00:02;15.98;;;7.93;;
21330;SDS011;10824;51.632;4.950;2024-03-08T02:02:33;15.68;;;7.95;;
21330;SDS011;10824;51.632;4.950;2024-03-08T02:05:01;16.98;;;7.40;;
21330;SDS011;10824;51.632;4.950;2024-03-08T02:07:29;14.70;;;6.55;;
21330;SDS011;10824;51.632;4.950;2024-03-08T02:09:58;20.35;;;7.40;;
21330;SDS011;10824;51.632;4.950;2024-03-08T02:12:25;16.13;;;6.65;;
21330;SDS011;10824;51.632;4.950;2024-03-08T02:14:53;27.15;;;6.93;;
21330;SDS011;10824;51.632;4.950;2024-03-08T02:17:22;11.38;;;7.00;;
21330;SDS011;10824;51.632;4.950;2024-03-08T02:19:50;12.70;;;5.80;;
21330;SDS011;10824;51.632;4.950;2024-03-08T02:22:17;14.27;;;6.72;;
21330;SDS011;10824;51.632;4.950;2024-03-08T02:24:45;12.13;;;7.72;;
21330;SDS011;10824;51.632;4.950;2024-03-08T02:27:13;17.85;;;7.72;;
21330;SDS011;10824;51.632;4.950;2024-03-08T02:29:44;13.68;;;7.25;;
21330;SDS011;10824;51.632;4.950;2024-03-08T02:32:12;12.52;;;6.43;;
21330;SDS011;10824;51.632;4.950;2024-03-08T02:34:39;16.85;;;8.68;;
21330;SDS011;10824;51.632;4.950;2024-03-08T02:37:07;14.00;;;7.07;;
21330;SDS011;10824;51.632;4.950;2024-03-08T02:39:36;19.33;;;7.82;;
21330;SDS011;10824;51.632;4.950;2024-03-08T02:42:04;11.55;;;5.88;;
21330;SDS011;10824;51.632;4.950;2024-03-08T02:44:32;14.10;;;7.63;;
21330;SDS011;10824;51.632;4.950;2024-03-08T02:47:01;27.65;;;8.15;;
21330;SDS011;10824;51.632;4.950;2024-03-08T02:49:28;14.25;;;6.75;;
21330;SDS011;10824;51.632;4.950;2024-03-08T02:51:56;15.25;;;8.00;;
21330;SDS011;10824;51.632;4.950;2024-03-08T02:54:24;15.70;;;6.78;;
21330;SDS011;10824;51.632;4.950;2024-03-08T02:56:51;13.80;;;5.47;;
21330;SDS011;10824;51.632;4.950;2024-03-08T02:59:19;12.18;;;7.15;;
21330;SDS011;10824;51.632;4.950;2024-03-08T03:01:46;18.58;;;9.32;;
21330;SDS011;10824;51.632;4.950;2024-03-08T03:04:14;17.77;;;8.45;;
21330;SDS011;10824;51.632;4.950;2024-03-08T03:06:41;20.60;;;7.95;;
21330;SDS011;10824;51.632;4.950;2024-03-08T03:09:09;11.43;;;7.28;;
21330;SDS011;10824;51.632;4.950;2024-03-08T03:11:39;14.40;;;8.07;;
21330;SDS011;10824;51.632;4.950;2024-03-08T03:14:06;15.25;;;6.43;;
21330;SDS011;10824;51.632;4.950;2024-03-08T03:16:34;15.60;;;9.02;;
21330;SDS011;10824;51.632;4.950;2024-03-08T03:19:02;14.93;;;6.90;;
21330;SDS011;10824;51.632;4.950;2024-03-08T03:21:32;16.75;;;8.63;;
21330;SDS011;10824;51.632;4.950;2024-03-08T03:24:02;20.17;;;6.80;;
21330;SDS011;10824;51.632;4.950;2024-03-08T03:26:31;19.23;;;7.95;;
21330;SDS011;10824;51.632;4.950;2024-03-08T03:28:59;15.95;;;6.13;;
21330;SDS011;10824;51.632;4.950;2024-03-08T03:31:29;15.32;;;7.00;;
21330;SDS011;10824;51.632;4.950;2024-03-08T03:33:57;15.95;;;7.45;;
21330;SDS011;10824;51.632;4.950;2024-03-08T03:36:29;13.80;;;7.63;;
21330;SDS011;10824;51.632;4.950;2024-03-08T03:38:57;11.68;;;6.03;;
21330;SDS011;10824;51.632;4.950;2024-03-08T03:41:47;11.95;;;5.75;;
21330;SDS011;10824;51.632;4.950;2024-03-08T03:44:18;21.40;;;9.23;;
21330;SDS011;10824;51.632;4.950;2024-03-08T03:46:46;16.30;;;7.45;;
21330;SDS011;10824;51.632;4.950;2024-03-08T03:49:16;11.07;;;6.68;;
21330;SDS011;10824;51.632;4.950;2024-03-08T03:51:44;14.60;;;7.78;;
21330;SDS011;10824;51.632;4.950;2024-03-08T03:54:11;14.68;;;7.78;;
21330;SDS011;10824;51.632;4.950;2024-03-08T03:56:39;17.15;;;7.05;;
21330;SDS011;10824;51.632;4.950;2024-03-08T03:59:07;17.67;;;8.23;;
21330;SDS011;10824;51.632;4.950;2024-03-08T04:01:35;15.98;;;8.13;;
21330;SDS011;10824;51.632;4.950;2024-03-08T04:04:05;10.63;;;5.70;;
21330;SDS011;10824;51.632;4.950;2024-03-08T04:06:32;14.90;;;7.63;;
21330;SDS011;10824;51.632;4.950;2024-03-08T04:09:01;13.52;;;7.40;;
21330;SDS011;10824;51.632;4.950;2024-03-08T04:11:28;11.68;;;7.53;;
21330;SDS011;10824;51.632;4.950;2024-03-08T04:13:57;18.92;;;8.20;;
21330;SDS011;10824;51.632;4.950;2024-03-08T04:16:24;14.00;;;8.07;;
21330;SDS011;10824;51.632;4.950;2024-03-08T04:18:53;13.52;;;7.45;;
21330;SDS011;10824;51.632;4.950;2024-03-08T04:21:21;16.67;;;8.40;;
21330;SDS011;10824;51.632;4.950;2024-03-08T04:23:48;13.70;;;8.07;;
21330;SDS011;10824;51.632;4.950;2024-03-08T04:26:16;15.02;;;7.45;;
21330;SDS011;10824;51.632;4.950;2024-03-08T04:28:45;20.55;;;9.07;;
21330;SDS011;10824;51.632;4.950;2024-03-08T04:31:17;15.35;;;6.57;;
21330;SDS011;10824;51.632;4.950;2024-03-08T04:33:45;13.88;;;6.90;;
21330;SDS011;10824;51.632;4.950;2024-03-08T04:36:12;15.85;;;7.13;;
21330;SDS011;10824;51.632;4.950;2024-03-08T04:38:40;14.57;;;7.45;;
21330;SDS011;10824;51.632;4.950;2024-03-08T04:41:08;11.45;;;7.15;;
21330;SDS011;10824;51.632;4.950;2024-03-08T04:43:36;15.90;;;7.53;;
21330;SDS011;10824;51.632;4.950;2024-03-08T04:46:04;20.38;;;9.07;;
21330;SDS011;10824;51.632;4.950;2024-03-08T04:48:32;13.25;;;7.10;;
21330;SDS011;10824;51.632;4.950;2024-03-08T04:50:59;13.82;;;6.60;;
21330;SDS011;10824;51.632;4.950;2024-03-08T04:53:28;12.88;;;8.13;;
21330;SDS011;10824;51.632;4.950;2024-03-08T04:55:55;13.85;;;7.32;;
21330;SDS011;10824;51.632;4.950;2024-03-08T04:58:24;23.70;;;9.82;;
21330;SDS011;10824;51.632;4.950;2024-03-08T05:00:52;15.43;;;8.40;;
21330;SDS011;10824;51.632;4.950;2024-03-08T05:03:20;23.25;;;8.80;;
21330;SDS011;10824;51.632;4.950;2024-03-08T05:05:47;16.20;;;8.82;;
21330;SDS011;10824;51.632;4.950;2024-03-08T05:08:15;15.60;;;8.43;;
21330;SDS011;10824;51.632;4.950;2024-03-08T05:10:45;23.15;;;7.45;;
21330;SDS011;10824;51.632;4.950;2024-03-08T05:13:13;14.43;;;8.05;;
21330;SDS011;10824;51.632;4.950;2024-03-08T05:15:40;15.23;;;6.57;;
21330;SDS011;10824;51.632;4.950;2024-03-08T05:18:08;17.08;;;8.80;;
21330;SDS011;10824;51.632;4.950;2024-03-08T05:20:38;15.30;;;9.25;;
21330;SDS011;10824;51.632;4.950;2024-03-08T05:23:06;12.20;;;6.45;;
21330;SDS011;10824;51.632;4.950;2024-03-08T05:25:33;21.20;;;9.82;;
21330;SDS011;10824;51.632;4.950;2024-03-08T05:28:01;14.80;;;9.05;;
21330;SDS011;10824;51.632;4.950;2024-03-08T05:30:28;22.88;;;9.65;;
21330;SDS011;10824;51.632;4.950;2024-03-08T05:32:55;17.27;;;8.20;;
21330;SDS011;10824;51.632;4.950;2024-03-08T05:35:23;17.60;;;8.38;;
21330;SDS011;10824;51.632;4.950;2024-03-08T05:37:51;19.75;;;10.60;;
21330;SDS011;10824;51.632;4.950;2024-03-08T05:40:18;15.85;;;8.55;;
21330;SDS011;10824;51.632;4.950;2024-03-08T05:42:49;19.20;;;6.60;;
21330;SDS011;10824;51.632;4.950;2024-03-08T05:45:16;19.13;;;10.75;;
21330;SDS011;10824;51.632;4.950;2024-03-08T05:47:43;20.52;;;8.70;;
21330;SDS011;10824;51.632;4.950;2024-03-08T05:50:11;20.92;;;9.90;;
21330;SDS011;10824;51.632;4.950;2024-03-08T05:52:38;24.83;;;10.05;;
21330;SDS011;10824;51.632;4.950;2024-03-08T05:55:06;19.00;;;9.70;;
21330;SDS011;10824;51.632;4.950;2024-03-08T05:57:34;20.30;;;8.90;;
21330;SDS011;10824;51.632;4.950;2024-03-08T06:00:08;16.67;;;9.02;;
21330;SDS011;10824;51.632;4.950;2024-03-08T06:02:39;19.27;;;7.93;;
21330;SDS011;10824;51.632;4.950;2024-03-08T06:05:10;18.05;;;8.32;;
21330;SDS011;10824;51.632;4.950;2024-03-08T06:07:37;15.55;;;8.55;;
21330;SDS011;10824;51.632;4.950;2024-03-08T06:10:10;17.20;;;8.60;;
21330;SDS011;10824;51.632;4.950;2024-03-08T06:12:41;20.45;;;9.98;;
21330;SDS011;10824;51.632;4.950;2024-03-08T06:15:11;26.15;;;9.35;;
21330;SDS011;10824;51.632;4.950;2024-03-08T06:17:42;16.23;;;10.20;;
21330;SDS011;10824;51.632;4.950;2024-03-08T06:20:10;14.52;;;8.48;;
21330;SDS011;10824;51.632;4.950;2024-03-08T06:22:42;15.73;;;7.22;;
21330;SDS011;10824;51.632;4.950;2024-03-08T06:25:13;16.30;;;9.77;;
21330;SDS011;10824;51.632;4.950;2024-03-08T06:27:42;16.70;;;8.63;;
21330;SDS011;10824;51.632;4.950;2024-03-08T06:30:11;15.48;;;7.10;;
21330;SDS011;10824;51.632;4.950;2024-03-08T06:32:40;15.43;;;7.70;;
21330;SDS011;10824;51.632;4.950;2024-03-08T06:35:10;15.30;;;9.07;;
21330;SDS011;10824;51.632;4.950;2024-03-08T06:37:38;24.92;;;10.32;;
21330;SDS011;10824;51.632;4.950;2024-03-08T06:40:06;20.70;;;9.50;;
21330;SDS011;10824;51.632;4.950;2024-03-08T06:42:35;16.90;;;7.47;;
21330;SDS011;10824;51.632;4.950;2024-03-08T06:45:03;17.85;;;10.02;;
21330;SDS011;10824;51.632;4.950;2024-03-08T06:47:31;19.75;;;8.35;;
21330;SDS011;10824;51.632;4.950;2024-03-08T06:50:00;15.95;;;8.35;;
21330;SDS011;10824;51.632;4.950;2024-03-08T06:52:27;18.23;;;9.77;;
21330;SDS011;10824;51.632;4.950;2024-03-08T06:54:54;20.73;;;10.70;;
21330;SDS011;10824;51.632;4.950;2024-03-08T06:57:23;20.85;;;9.20;;
21330;SDS011;10824;51.632;4.950;2024-03-08T06:59:50;14.25;;;7.60;;
21330;SDS011;10824;51.632;4.950;2024-03-08T07:02:21;16.58;;;9.38;;
21330;SDS011;10824;51.632;4.950;2024-03-08T07:04:51;23.20;;;9.30;;
21330;SDS011;10824;51.632;4.950;2024-03-08T07:07:19;25.10;;;10.95;;
21330;SDS011;10824;51.632;4.950;2024-03-08T07:09:46;16.27;;;9.10;;
21330;SDS011;10824;51.632;4.950;2024-03-08T07:12:15;19.50;;;12.25;;
21330;SDS011;10824;51.632;4.950;2024-03-08T07:14:43;19.42;;;11.15;;
21330;SDS011;10824;51.632;4.950;2024-03-08T07:17:12;20.95;;;8.25;;
21330;SDS011;10824;51.632;4.950;2024-03-08T07:19:39;19.65;;;8.93;;
21330;SDS011;10824;51.632;4.950;2024-03-08T07:22:06;24.42;;;11.68;;
21330;SDS011;10824;51.632;4.950;2024-03-08T07:24:36;18.25;;;9.50;;
21330;SDS011;10824;51.632;4.950;2024-03-08T07:27:27;19.77;;;9.18;;
21330;SDS011;10824;51.632;4.950;2024-03-08T07:29:55;19.67;;;7.40;;
21330;SDS011;10824;51.632;4.950;2024-03-08T07:32:27;21.08;;;9.68;;
21330;SDS011;10824;51.632;4.950;2024-03-08T07:34:56;15.27;;;8.68;;
21330;SDS011;10824;51.632;4.950;2024-03-08T07:37:23;20.67;;;9.65;;
21330;SDS011;10824;51.632;4.950;2024-03-08T07:39:51;18.25;;;8.77;;
21330;SDS011;10824;51.632;4.950;2024-03-08T07:42:18;22.60;;;9.40;;
21330;SDS011;10824;51.632;4.950;2024-03-08T07:44:45;21.92;;;9.63;;
21330;SDS011;10824;51.632;4.950;2024-03-08T07:47:15;20.60;;;10.38;;
21330;SDS011;10824;51.632;4.950;2024-03-08T07:49:43;22.58;;;9.98;;
21330;SDS011;10824;51.632;4.950;2024-03-08T07:52:10;22.00;;;9.95;;
21330;SDS011;10824;51.632;4.950;2024-03-08T07:54:42;22.48;;;13.23;;
21330;SDS011;10824;51.632;4.950;2024-03-08T07:57:10;17.00;;;9.02;;
21330;SDS011;10824;51.632;4.950;2024-03-08T07:59:37;26.67;;;10.82;;
21330;SDS011;10824;51.632;4.950;2024-03-08T08:02:05;24.48;;;9.45;;
21330;SDS011;10824;51.632;4.950;2024-03-08T08:04:33;23.05;;;10.80;;
21330;SDS011;10824;51.632;4.950;2024-03-08T08:07:00;22.40;;;9.23;;
21330;SDS011;10824;51.632;4.950;2024-03-08T08:09:27;21.88;;;8.27;;
21330;SDS011;10824;51.632;4.950;2024-03-08T08:11:55;19.40;;;9.82;;
21330;SDS011;10824;51.632;4.950;2024-03-08T08:14:22;19.67;;;9.30;;
21330;SDS011;10824;51.632;4.950;2024-03-08T08:16:49;20.65;;;8.48;;
21330;SDS011;10824;51.632;4.950;2024-03-08T08:19:19;15.70;;;7.57;;
21330;SDS011;10824;51.632;4.950;2024-03-08T08:21:47;16.00;;;6.82;;
21330;SDS011;10824;51.632;4.950;2024-03-08T08:24:14;18.50;;;9.00;;
21330;SDS011;10824;51.632;4.950;2024-03-08T08:26:41;20.02;;;9.55;;
21330;SDS011;10824;51.632;4.950;2024-03-08T08:29:11;15.30;;;8.60;;
21330;SDS011;10824;51.632;4.950;2024-03-08T08:31:38;14.93;;;7.97;;
21330;SDS011;10824;51.632;4.950;2024-03-08T08:34:05;17.48;;;8.82;;
21330;SDS011;10824;51.632;4.950;2024-03-08T08:36:33;19.67;;;8.30;;
21330;SDS011;10824;51.632;4.950;2024-03-08T08:39:00;14.52;;;7.47;;
21330;SDS011;10824;51.632;4.950;2024-03-08T08:41:29;20.67;;;7.57;;
21330;SDS011;10824;51.632;4.950;2024-03-08T08:43:58;17.88;;;7.28;;
21330;SDS011;10824;51.632;4.950;2024-03-08T08:46:41;19.02;;;8.55;;
21330;SDS011;10824;51.632;4.950;2024-03-08T08:49:08;15.65;;;7.53;;
21330;SDS011;10824;51.632;4.950;2024-03-08T08:51:41;18.80;;;7.85;;
21330;SDS011;10824;51.632;4.950;2024-03-08T08:54:08;18.23;;;8.68;;
21330;SDS011;10824;51.632;4.950;2024-03-08T08:56:39;20.67;;;10.07;;
21330;SDS011;10824;51.632;4.950;2024-03-08T08:59:06;14.55;;;8.80;;
21330;SDS011;10824;51.632;4.950;2024-03-08T09:01:34;21.05;;;9.23;;
21330;SDS011;10824;51.632;4.950;2024-03-08T09:04:01;17.65;;;9.05;;
21330;SDS011;10824;51.632;4.950;2024-03-08T09:06:28;15.88;;;7.88;;
21330;SDS011;10824;51.632;4.950;2024-03-08T09:08:56;19.63;;;8.32;;
21330;SDS011;10824;51.632;4.950;2024-03-08T09:11:24;18.10;;;8.32;;
21330;SDS011;10824;51.632;4.950;2024-03-08T09:13:54;17.67;;;9.23;;
21330;SDS011;10824;51.632;4.950;2024-03-08T09:16:21;19.50;;;7.43;;
21330;SDS011;10824;51.632;4.950;2024-03-08T09:18:49;18.48;;;7.50;;
21330;SDS011;10824;51.632;4.950;2024-03-08T09:21:17;17.42;;;9.38;;
21330;SDS011;10824;51.632;4.950;2024-03-08T09:23:46;22.38;;;8.38;;
21330;SDS011;10824;51.632;4.950;2024-03-08T09:26:13;21.20;;;7.90;;
21330;SDS011;10824;51.632;4.950;2024-03-08T09:28:53;21.88;;;8.23;;
21330;SDS011;10824;51.632;4.950;2024-03-08T09:31:24;15.77;;;7.80;;
21330;SDS011;10824;51.632;4.950;2024-03-08T09:33:52;17.38;;;7.47;;
21330;SDS011;10824;51.632;4.950;2024-03-08T09:36:19;20.38;;;8.30;;
21330;SDS011;10824;51.632;4.950;2024-03-08T09:38:46;16.83;;;7.55;;
21330;SDS011;10824;51.632;4.950;2024-03-08T09:41:15;17.98;;;8.18;;
21330;SDS011;10824;51.632;4.950;2024-03-08T09:43:42;15.75;;;7.97;;
21330;SDS011;10824;51.632;4.950;2024-03-08T09:46:09;16.08;;;7.50;;
21330;SDS011;10824;51.632;4.950;2024-03-08T09:48:37;19.70;;;7.85;;
21330;SDS011;10824;51.632;4.950;2024-03-08T09:51:08;21.67;;;8.93;;
21330;SDS011;10824;51.632;4.950;2024-03-08T09:53:35;20.20;;;9.40;;
21330;SDS011;10824;51.632;4.950;2024-03-08T09:56:03;13.65;;;7.15;;
21330;SDS011;10824;51.632;4.950;2024-03-08T09:58:30;13.48;;;6.82;;
21330;SDS011;10824;51.632;4.950;2024-03-08T10:01:00;14.23;;;7.18;;
21330;SDS011;10824;51.632;4.950;2024-03-08T10:03:34;13.25;;;7.97;;
21330;SDS011;10824;51.632;4.950;2024-03-08T10:06:01;13.90;;;7.50;;
21330;SDS011;10824;51.632;4.950;2024-03-08T10:08:29;15.85;;;7.15;;
21330;SDS011;10824;51.632;4.950;2024-03-08T10:10:56;10.60;;;5.30;;
21330;SDS011;10824;51.632;4.950;2024-03-08T10:13:28;12.07;;;7.15;;
21330;SDS011;10824;51.632;4.950;2024-03-08T10:15:56;18.13;;;7.78;;
21330;SDS011;10824;51.632;4.950;2024-03-08T10:18:23;15.60;;;8.15;;
21330;SDS011;10824;51.632;4.950;2024-03-08T10:21:07;13.77;;;7.22;;
21330;SDS011;10824;51.632;4.950;2024-03-08T10:23:37;14.50;;;7.38;;
21330;SDS011;10824;51.632;4.950;2024-03-08T10:26:14;12.43;;;6.90;;
21330;SDS011;10824;51.632;4.950;2024-03-08T10:28:46;15.60;;;6.10;;
21330;SDS011;10824;51.632;4.950;2024-03-08T10:31:16;15.50;;;6.22;;
21330;SDS011;10824;51.632;4.950;2024-03-08T10:33:48;13.43;;;6.13;;
21330;SDS011;10824;51.632;4.950;2024-03-08T10:36:15;17.38;;;6.47;;
21330;SDS011;10824;51.632;4.950;2024-03-08T10:38:43;14.05;;;5.95;;
21330;SDS011;10824;51.632;4.950;2024-03-08T10:41:14;14.27;;;7.10;;
21330;SDS011;10824;51.632;4.950;2024-03-08T10:44:08;14.85;;;5.90;;
21330;SDS011;10824;51.632;4.950;2024-03-08T10:46:57;14.57;;;7.57;;
21330;SDS011;10824;51.632;4.950;2024-03-08T10:49:44;14.07;;;5.95;;
21330;SDS011;10824;51.632;4.950;2024-03-08T10:52:37;13.02;;;5.32;;
21330;SDS011;10824;51.632;4.950;2024-03-08T10:55:04;11.88;;;6.30;;
21330;SDS011;10824;51.632;4.950;2024-03-08T10:57:39;10.43;;;5.38;;
21330;SDS011;10824;51.632;4.950;2024-03-08T11:00:08;16.70;;;7.57;;
21330;SDS011;10824;51.632;4.950;2024-03-08T11:02:38;11.23;;;5.05;;
21330;SDS011;10824;51.632;4.950;2024-03-08T11:05:06;12.48;;;6.80;;
21330;SDS011;10824;51.632;4.950;2024-03-08T11:07:42;12.55;;;5.15;;
21330;SDS011;10824;51.632;4.950;2024-03-08T11:10:19;9.10;;;4.85;;
21330;SDS011;10824;51.632;4.950;2024-03-08T11:12:46;15.55;;;6.07;;
21330;SDS011;10824;51.632;4.950;2024-03-08T11:15:15;11.40;;;6.72;;
21330;SDS011;10824;51.632;4.950;2024-03-08T11:17:48;15.20;;;6.20;;
21330;SDS011;10824;51.632;4.950;2024-03-08T11:20:17;11.05;;;5.65;;
21330;SDS011;10824;51.632;4.950;2024-03-08T11:22:59;13.60;;;5.28;;
21330;SDS011;10824;51.632;4.950;2024-03-08T11:28:13;11.82;;;6.07;;
21330;SDS011;10824;51.632;4.950;2024-03-08T11:30:43;15.55;;;5.50;;
21330;SDS011;10824;51.632;4.950;2024-03-08T11:33:35;12.52;;;7.03;;
21330;SDS011;10824;51.632;4.950;2024-03-08T11:36:07;13.25;;;5.78;;
21330;SDS011;10824;51.632;4.950;2024-03-08T11:38:43;13.88;;;5.47;;
21330;SDS011;10824;51.632;4.950;2024-03-08T11:41:11;9.93;;;4.88;;
21330;SDS011;10824;51.632;4.950;2024-03-08T11:43:44;15.30;;;6.55;;
21330;SDS011;10824;51.632;4.950;2024-03-08T11:46:13;12.90;;;5.05;;
21330;SDS011;10824;51.632;4.950;2024-03-08T11:48:42;14.65;;;5.45;;
21330;SDS011;10824;51.632;4.950;2024-03-08T11:51:11;10.77;;;5.65;;
21330;SDS011;10824;51.632;4.950;2024-03-08T11:53:40;12.18;;;5.90;;
21330;SDS011;10824;51.632;4.950;2024-03-08T11:56:11;10.63;;;5.75;;
21330;SDS011;10824;51.632;4.950;2024-03-08T11:58:39;14.02;;;6.25;;
21330;SDS011;10824;51.632;4.950;2024-03-08T12:01:08;12.15;;;5.30;;
21330;SDS011;10824;51.632;4.950;2024-03-08T12:03:39;10.95;;;5.32;;
21330;SDS011;10824;51.632;4.950;2024-03-08T12:06:09;9.05;;;4.90;;
21330;SDS011;10824;51.632;4.950;2024-03-08T12:08:42;12.43;;;5.70;;
21330;SDS011;10824;51.632;4.950;2024-03-08T12:11:10;13.93;;;4.55;;
21330;SDS011;10824;51.632;4.950;2024-03-08T12:13:39;12.27;;;5.47;;
21330;SDS011;10824;51.632;4.950;2024-03-08T12:16:07;13.98;;;5.97;;
21330;SDS011;10824;51.632;4.950;2024-03-08T12:18:36;15.35;;;5.00;;
21330;SDS011;10824;51.632;4.950;2024-03-08T12:23:46;11.17;;;4.77;;
21330;SDS011;10824;51.632;4.950;2024-03-08T12:26:24;11.45;;;4.85;;
21330;SDS011;10824;51.632;4.950;2024-03-08T12:28:52;9.60;;;4.47;;
21330;SDS011;10824;51.632;4.950;2024-03-08T12:31:20;10.98;;;4.43;;
21330;SDS011;10824;51.632;4.950;2024-03-08T12:33:54;10.95;;;4.15;;
21330;SDS011;10824;51.632;4.950;2024-03-08T12:36:25;9.50;;;4.60;;
21330;SDS011;10824;51.632;4.950;2024-03-08T12:38:53;8.00;;;3.92;;
21330;SDS011;10824;51.632;4.950;2024-03-08T12:41:23;8.77;;;3.78;;
21330;SDS011;10824;51.632;4.950;2024-03-08T12:43:50;9.55;;;3.70;;
21330;SDS011;10824;51.632;4.950;2024-03-08T12:46:18;5.25;;;3.58;;
21330;SDS011;10824;51.632;4.950;2024-03-08T12:48:48;9.38;;;4.68;;
21330;SDS011;10824;51.632;4.950;2024-03-08T12:51:16;12.77;;;4.70;;
21330;SDS011;10824;51.632;4.950;2024-03-08T12:53:47;10.47;;;4.07;;
21330;SDS011;10824;51.632;4.950;2024-03-08T12:56:19;13.73;;;4.93;;
21330;SDS011;10824;51.632;4.950;2024-03-08T12:58:55;14.07;;;5.55;;
21330;SDS011;10824;51.632;4.950;2024-03-08T13:01:23;8.60;;;3.85;;
21330;SDS011;10824;51.632;4.950;2024-03-08T13:03:50;9.40;;;4.00;;
21330;SDS011;10824;51.632;4.950;2024-03-08T13:06:18;10.20;;;4.32;;
21330;SDS011;10824;51.632;4.950;2024-03-08T13:08:51;8.90;;;4.10;;
21330;SDS011;10824;51.632;4.950;2024-03-08T13:11:22;7.70;;;4.13;;
21330;SDS011;10824;51.632;4.950;2024-03-08T13:13:52;12.98;;;4.70;;
21330;SDS011;10824;51.632;4.950;2024-03-08T13:16:19;8.73;;;4.10;;
21330;SDS011;10824;51.632;4.950;2024-03-08T13:18:46;8.30;;;4.43;;
21330;SDS011;10824;51.632;4.950;2024-03-08T13:21:19;8.45;;;4.60;;
21330;SDS011;10824;51.632;4.950;2024-03-08T13:23:46;11.55;;;4.07;;
21330;SDS011;10824;51.632;4.950;2024-03-08T13:26:16;8.60;;;4.40;;
21330;SDS011;10824;51.632;4.950;2024-03-08T13:28:46;9.82;;;4.40;;
21330;SDS011;10824;51.632;4.950;2024-03-08T13:31:15;8.60;;;3.60;;
21330;SDS011;10824;51.632;4.950;2024-03-08T13:33:42;9.55;;;4.07;;
21330;SDS011;10824;51.632;4.950;2024-03-08T13:36:13;7.85;;;3.90;;
21330;SDS011;10824;51.632;4.950;2024-03-08T13:38:45;10.98;;;4.80;;
21330;SDS011;10824;51.632;4.950;2024-03-08T13:41:15;10.48;;;4.07;;
21330;SDS011;10824;51.632;4.950;2024-03-08T13:43:45;7.13;;;3.70;;
21330;SDS011;10824;51.632;4.950;2024-03-08T13:46:16;9.98;;;5.38;;
21330;SDS011;10824;51.632;4.950;2024-03-08T13:48:44;7.78;;;4.03;;
21330;SDS011;10824;51.632;4.950;2024-03-08T13:51:11;8.48;;;3.75;;
21330;SDS011;10824;51.632;4.950;2024-03-08T13:53:39;10.07;;;4.00;;
21330;SDS011;10824;51.632;4.950;2024-03-08T13:56:06;8.82;;;3.78;;
21330;SDS011;10824;51.632;4.950;2024-03-08T13:58:37;6.43;;;4.20;;
21330;SDS011;10824;51.632;4.950;2024-03-08T14:01:07;8.18;;;3.38;;
21330;SDS011;10824;51.632;4.950;2024-03-08T14:03:39;7.53;;;3.40;;
21330;SDS011;10824;51.632;4.950;2024-03-08T14:06:09;7.93;;;3.95;;
21330;SDS011;10824;51.632;4.950;2024-03-08T14:08:51;10.63;;;4.55;;
21330;SDS011;10824;51.632;4.950;2024-03-08T14:11:18;9.57;;;3.78;;
21330;SDS011;10824;51.632;4.950;2024-03-08T14:13:46;8.13;;;3.33;;
21330;SDS011;10824;51.632;4.950;2024-03-08T14:16:14;8.30;;;3.92;;
21330;SDS011;10824;51.632;4.950;2024-03-08T14:18:44;8.60;;;4.22;;
21330;SDS011;10824;51.632;4.950;2024-03-08T14:21:11;7.50;;;3.97;;
21330;SDS011;10824;51.632;4.950;2024-03-08T14:23:40;6.57;;;3.33;;
21330;SDS011;10824;51.632;4.950;2024-03-08T14:26:09;10.10;;;3.13;;
21330;SDS011;10824;51.632;4.950;2024-03-08T14:28:37;9.15;;;3.88;;
21330;SDS011;10824;51.632;4.950;2024-03-08T14:31:05;7.57;;;4.00;;
21330;SDS011;10824;51.632;4.950;2024-03-08T14:33:37;11.57;;;4.25;;
21330;SDS011;10824;51.632;4.950;2024-03-08T14:36:05;9.30;;;4.47;;
21330;SDS011;10824;51.632;4.950;2024-03-08T14:38:35;8.05;;;3.35;;
21330;SDS011;10824;51.632;4.950;2024-03-08T14:41:04;7.00;;;3.40;;
21330;SDS011;10824;51.632;4.950;2024-03-08T14:43:34;11.98;;;4.88;;
21330;SDS011;10824;51.632;4.950;2024-03-08T14:46:01;8.32;;;3.70;;
21330;SDS011;10824;51.632;4.950;2024-03-08T14:48:29;9.90;;;4.55;;
21330;SDS011;10824;51.632;4.950;2024-03-08T14:50:57;11.30;;;5.18;;
21330;SDS011;10824;51.632;4.950;2024-03-08T14:53:24;10.85;;;4.30;;